Time;durP1;ratioP1;P1;durP2;ratioP2;P2;SDS_P1;SDS_P2;PMS_P1;PMS_P2;Temp;Humidity;BMP_temperature;BMP_pressure;BME280_temperature;BME280_humidity;BME280_pressure;Samples;Min_cycle;Max_cycle;Signal;HPM_P1;HPM_P2
2022/02/17 00:04:12;;;;;;;1.60;1.50;;;;;;;7.41;73.23;97372.70;213453;1276;140142;-77
2022/02/17 00:09:17;;;;;;;3.90;2.20;;;;;;;7.38;73.03;97362.20;213745;1276;141453;-75
2022/02/17 00:14:23;;;;;;;3.50;2.30;;;;;;;7.36;73.46;97335.02;213044;1276;141583;-79
2022/02/17 00:19:27;;;;;;;5.50;1.90;;;;;;;7.35;73.23;97305.30;214661;1276;140636;-75
2022/02/17 00:24:31;;;;;;;2.80;1.50;;;;;;;7.29;73.13;97286.26;213942;1276;140327;-71
2022/02/17 00:29:34;;;;;;;3.00;1.90;;;;;;;7.24;73.59;97271.87;214093;1275;140650;-74
2022/02/17 00:34:39;;;;;;;1.80;1.60;;;;;;;7.18;73.37;97288.16;213829;1275;140789;-71
2022/02/17 00:39:42;;;;;;;2.40;2.10;;;;;;;7.12;73.50;97268.16;213807;1274;139974;-69
2022/02/17 00:44:49;;;;;;;1.90;1.80;;;;;;;7.08;73.80;97247.30;214604;1276;141413;-70
2022/02/17 00:49:53;;;;;;;2.30;2.00;;;;;;;7.06;73.46;97209.69;212884;1276;140958;-67
2022/02/17 00:55:00;;;;;;;4.40;2.00;;;;;;;7.04;73.72;97153.48;214874;1276;139716;-68
2022/02/17 01:00:07;;;;;;;3.30;1.90;;;;;;;7.06;74.14;97125.61;214470;1276;140457;-73
2022/02/17 01:05:11;;;;;;;1.90;1.80;;;;;;;7.08;74.23;97113.58;215307;1276;140578;-74
2022/02/17 01:10:16;;;;;;;2.40;1.80;;;;;;;7.11;74.40;97093.22;215858;1276;141694;-77
2022/02/17 01:15:20;;;;;;;2.50;2.30;;;;;;;7.15;74.68;97090.86;215891;1274;140246;-76
2022/02/17 01:20:24;;;;;;;2.10;1.90;;;;;;;7.21;74.64;97065.70;215897;1276;139962;-80
2022/02/17 01:25:29;;;;;;;2.00;1.80;;;;;;;7.25;74.54;97043.67;215406;1276;140280;-79
2022/02/17 01:30:34;;;;;;;4.30;1.90;;;;;;;7.28;74.56;97031.79;215280;1276;140539;-77
2022/02/17 01:35:39;;;;;;;2.80;2.10;;;;;;;7.33;74.81;97019.38;213607;1276;139949;-77
2022/02/17 01:40:43;;;;;;;1.90;1.80;;;;;;;7.34;75.43;97011.47;214559;1276;210723;-75
2022/02/17 01:45:48;;;;;;;2.90;2.30;;;;;;;7.30;75.71;96976.92;214054;1276;141834;-73
2022/02/17 01:50:53;;;;;;;2.60;2.40;;;;;;;7.24;76.44;96961.08;214325;1276;140166;-75
2022/02/17 01:55:59;;;;;;;2.80;1.90;;;;;;;7.16;76.67;96940.87;213488;1276;140484;-73
2022/02/17 02:01:03;;;;;;;5.80;3.30;;;;;;;7.09;77.28;96921.00;213045;1276;141611;-81
2022/02/17 02:06:07;;;;;;;2.40;2.20;;;;;;;7.04;77.43;96903.95;213524;1276;140655;-73
2022/02/17 02:11:13;;;;;;;2.40;2.20;;;;;;;7.02;78.06;96870.08;213706;1276;160271;-74
2022/02/17 02:16:19;;;;;;;4.70;3.50;;;;;;;7.01;78.35;96845.52;213966;1276;150631;-71
2022/02/17 02:21:24;;;;;;;3.30;2.70;;;;;;;7.03;78.76;96840.27;213237;1276;141556;-75
2022/02/17 02:26:30;;;;;;;2.70;2.30;;;;;;;7.09;78.59;96820.04;213271;1276;139841;-77
2022/02/17 02:31:34;;;;;;;2.30;2.10;;;;;;;7.13;79.13;96804.25;213404;1276;139590;-73
2022/02/17 02:36:38;;;;;;;2.80;2.50;;;;;;;7.18;79.27;96790.90;213810;1276;140767;-70
2022/02/17 02:41:43;;;;;;;2.50;2.10;;;;;;;7.23;79.48;96785.22;213807;1276;141610;-78
2022/02/17 02:46:46;;;;;;;2.80;2.50;;;;;;;7.30;79.63;96772.84;213447;1277;140515;-73
2022/02/17 02:51:51;;;;;;;3.10;2.40;;;;;;;7.37;80.08;96760.23;214004;1276;142205;-76
2022/02/17 02:56:55;;;;;;;3.30;3.00;;;;;;;7.44;79.97;96754.14;214877;1276;140497;-76
2022/02/17 03:01:59;;;;;;;1.90;1.80;;;;;;;7.51;79.93;96747.63;215641;1275;139740;-76
2022/02/17 03:07:04;;;;;;;1.50;1.40;;;;;;;7.61;80.30;96744.52;214695;1276;141764;-78
2022/02/17 03:12:08;;;;;;;2.10;1.90;;;;;;;7.70;80.28;96735.66;215099;1277;140517;-74
2022/02/17 03:17:12;;;;;;;1.80;1.40;;;;;;;7.76;80.19;96720.52;215955;1276;140959;-74
2022/02/17 03:22:16;;;;;;;1.20;1.20;;;;;;;7.77;80.26;96697.95;214392;1276;141731;-79
2022/02/17 03:27:20;;;;;;;1.80;1.50;;;;;;;7.76;79.90;96679.30;215920;1277;141610;-78
2022/02/17 03:32:24;;;;;;;2.20;1.70;;;;;;;7.74;80.28;96667.84;213850;1276;641587;-78
2022/02/17 03:37:29;;;;;;;1.90;1.70;;;;;;;7.73;80.32;96674.22;214622;1276;140619;-78
2022/02/17 03:42:35;;;;;;;3.20;1.90;;;;;;;7.72;80.44;96649.25;213392;1276;140214;-79
2022/02/17 03:47:41;;;;;;;1.40;1.30;;;;;;;7.73;80.72;96620.94;213931;1277;141672;-73
2022/02/17 03:52:45;;;;;;;2.00;1.90;;;;;;;7.75;80.68;96617.39;213367;1277;141815;-77
2022/02/17 03:57:50;;;;;;;2.30;2.00;;;;;;;7.81;80.65;96602.77;213135;1277;140790;-75
2022/02/17 04:02:54;;;;;;;1.90;1.50;;;;;;;7.86;80.77;96564.44;214294;1277;140561;-77
2022/02/17 04:07:59;;;;;;;1.50;1.40;;;;;;;7.89;80.59;96558.23;213760;1277;139839;-72
2022/02/17 04:13:03;;;;;;;1.40;1.20;;;;;;;7.93;80.37;96536.55;213760;1277;143005;-74
2022/02/17 04:18:08;;;;;;;3.80;1.00;;;;;;;7.99;80.60;96507.19;214312;1276;140650;-77
2022/02/17 04:23:12;;;;;;;1.30;1.10;;;;;;;8.07;80.24;96501.04;213004;1276;142448;-75
2022/02/17 04:28:18;;;;;;;1.30;1.30;;;;;;;8.18;80.42;96531.61;213272;1277;140064;-73
2022/02/17 04:33:22;;;;;;;1.20;1.10;;;;;;;8.28;80.75;96579.40;214389;1276;140567;-76
2022/02/17 17:32:28;;;;;;;8.90;5.60;;;;;;;3.71;81.71;97709.86;214389;1312;658117;-74
2022/02/17 17:37:32;;;;;;;7.70;4.20;;;;;;;3.78;81.73;97726.36;213847;1287;139410;-72
2022/02/17 17:42:35;;;;;;;20.10;8.50;;;;;;;3.91;81.33;97737.92;213441;1286;600268;-74
2022/02/17 17:47:38;;;;;;;7.70;5.60;;;;;;;4.07;81.01;97744.68;213698;1286;139944;-70
2022/02/17 17:52:41;;;;;;;2.60;2.40;;;;;;;4.24;80.85;97756.23;213671;1286;139247;-74
2022/02/17 17:57:44;;;;;;;3.90;2.80;;;;;;;4.40;80.51;97765.88;213795;1285;139474;-71
2022/02/17 18:02:47;;;;;;;2.20;2.00;;;;;;;4.58;80.10;97778.16;214202;1285;140219;-72
2022/02/17 18:07:50;;;;;;;2.30;2.10;;;;;;;4.67;79.99;97784.88;214180;1285;139795;-70
2022/02/17 18:12:52;;;;;;;1.90;1.70;;;;;;;4.74;79.90;97790.98;214219;1286;160784;-70
2022/02/17 18:17:56;;;;;;;3.30;2.70;;;;;;;4.79;79.77;97804.84;213834;1285;139434;-76
2022/02/17 18:23:02;;;;;;;3.60;2.20;;;;;;;4.78;79.55;97812.95;213902;1286;139613;-76
2022/02/17 18:28:08;;;;;;;5.00;2.10;;;;;;;4.75;79.59;97824.30;213539;1286;140734;-76
2022/02/17 18:33:12;;;;;;;2.70;1.50;;;;;;;4.72;79.20;97836.89;213781;1287;141297;-77
2022/02/17 18:38:15;;;;;;;5.80;2.50;;;;;;;4.68;78.92;97847.34;214058;1288;140674;-75
2022/02/17 18:43:18;;;;;;;4.60;2.40;;;;;;;4.67;78.78;97852.59;213666;1288;160697;-76
2022/02/17 18:48:20;;;;;;;2.90;1.30;;;;;;;4.65;78.76;97864.06;213574;1288;140582;-76
2022/02/17 18:53:23;;;;;;;4.80;2.50;;;;;;;4.57;78.64;97877.42;213456;1289;140462;-76
2022/02/17 18:58:25;;;;;;;2.70;1.40;;;;;;;4.50;78.81;97888.61;213328;1289;151548;-78
2022/02/17 19:03:28;;;;;;;1.20;1.10;;;;;;;4.47;78.72;97892.98;213493;1287;139784;-76
2022/02/17 19:08:36;;;;;;;2.30;1.20;;;;;;;4.42;78.70;97892.44;213840;1287;141565;-76
2022/02/17 19:13:39;;;;;;;1.70;1.20;;;;;;;4.37;78.81;97903.80;213920;1287;164579;-76
2022/02/17 19:18:42;;;;;;;2.10;1.10;;;;;;;4.32;78.84;97910.73;213476;1287;140060;-72
2022/02/17 19:23:44;;;;;;;2.40;2.20;;;;;;;4.23;78.84;97924.89;213518;1287;140465;-76
2022/02/17 19:28:47;;;;;;;5.10;2.40;;;;;;;4.14;78.92;97936.70;213404;1287;139770;-74
2022/02/17 19:33:49;;;;;;;1.10;0.80;;;;;;;4.01;78.98;97932.25;213691;1286;139266;-74
2022/02/17 19:38:52;;;;;;;2.80;1.00;;;;;;;3.87;79.06;97937.48;213665;1287;139621;-75
2022/02/17 19:43:54;;;;;;;1.40;1.30;;;;;;;3.79;79.28;97946.92;215302;1279;139914;-75
2022/02/17 19:48:57;;;;;;;1.20;1.10;;;;;;;3.72;79.69;97949.45;215039;1279;140123;-75
2022/02/17 19:53:59;;;;;;;1.60;1.50;;;;;;;3.64;79.84;97960.17;215152;1279;140929;-77
2022/02/17 19:59:02;;;;;;;1.90;1.70;;;;;;;3.63;80.00;97956.21;215354;1280;140297;-78
2022/02/17 20:04:05;;;;;;;3.60;1.50;;;;;;;3.65;80.31;97965.58;215433;1280;140591;-77
2022/02/17 20:09:09;;;;;;;2.30;2.00;;;;;;;3.64;80.26;97977.15;215551;1278;140406;-77
2022/02/17 20:14:12;;;;;;;4.30;2.00;;;;;;;3.64;80.50;97985.10;215826;1276;141753;-77
2022/02/17 20:19:14;;;;;;;4.10;2.20;;;;;;;3.65;80.65;97987.77;215754;1276;140511;-71
2022/02/17 20:24:17;;;;;;;2.30;1.50;;;;;;;3.66;80.80;97994.37;215945;1277;141262;-77
2022/02/17 20:29:20;;;;;;;4.70;2.50;;;;;;;3.68;80.98;98000.45;216101;1276;140814;-77
2022/02/17 20:34:22;;;;;;;2.40;2.20;;;;;;;3.68;81.08;98009.52;215644;1276;140128;-77
2022/02/17 20:39:25;;;;;;;2.80;2.00;;;;;;;3.69;81.24;98017.33;216006;1277;140955;-68
2022/02/17 20:55:09;;;;;;;4.60;2.20;;;;;;;3.80;81.40;98037.05;215873;1276;141113;-78
2022/02/17 21:00:12;;;;;;;3.70;1.90;;;;;;;3.83;81.59;98041.29;216260;1276;142052;-77
2022/02/17 21:05:14;;;;;;;3.00;2.10;;;;;;;3.85;81.49;98047.61;215010;1277;140862;-77
2022/02/17 21:10:17;;;;;;;4.60;2.00;;;;;;;3.88;81.47;98055.42;215746;1277;140298;-80
2022/02/17 21:15:20;;;;;;;5.00;1.60;;;;;;;3.89;81.41;98067.16;215894;1276;143039;-80
2022/02/17 21:20:23;;;;;;;2.90;1.30;;;;;;;3.93;81.17;98079.10;216378;1277;140692;-79
2022/02/17 21:25:26;;;;;;;4.00;2.40;;;;;;;3.95;81.01;98088.68;216161;1276;140549;-79
2022/02/17 21:30:28;;;;;;;3.10;2.50;;;;;;;3.96;80.86;98092.92;215750;1276;140661;-79
2022/02/17 21:35:30;;;;;;;5.80;3.60;;;;;;;3.95;80.63;98102.60;215985;1276;141376;-80
2022/02/17 21:40:32;;;;;;;5.00;2.20;;;;;;;3.95;80.75;98109.30;215839;1276;140892;-80
2022/02/17 21:45:34;;;;;;;7.60;3.90;;;;;;;3.94;80.57;98118.05;215769;1277;140213;-79
2022/02/17 21:50:36;;;;;;;4.80;2.00;;;;;;;3.96;80.66;98125.47;216222;1276;141141;-80
2022/02/17 21:55:39;;;;;;;9.00;2.80;;;;;;;3.96;80.53;98129.57;216034;1276;140386;-82
2022/02/17 22:00:42;;;;;;;5.40;2.50;;;;;;;3.97;80.28;98139.60;215617;1276;140258;-78
2022/02/17 22:05:45;;;;;;;5.80;2.70;;;;;;;3.95;80.37;98152.32;216076;1276;140398;-80
2022/02/17 22:10:47;;;;;;;4.80;1.40;;;;;;;3.93;80.38;98159.77;215883;1276;140435;-81
2022/02/17 22:15:50;;;;;;;4.30;2.10;;;;;;;3.95;80.42;98161.73;215745;1276;140742;-81
2022/02/17 22:20:52;;;;;;;5.70;1.90;;;;;;;3.98;80.31;98163.35;215890;1276;140660;-81
2022/02/17 22:25:58;;;;;;;5.50;1.90;;;;;;;3.98;80.03;98171.88;215784;1276;139421;-79
2022/02/17 22:31:00;;;;;;;4.40;1.60;;;;;;;3.97;79.86;98186.65;215735;1276;140199;-78
2022/02/17 22:36:03;;;;;;;5.90;1.50;;;;;;;3.99;79.72;98197.38;216239;1276;139700;-77
2022/02/17 22:41:10;;;;;;;8.90;3.30;;;;;;;4.02;79.67;98202.09;215581;1276;140134;-77
2022/02/17 22:46:12;;;;;;;5.60;1.90;;;;;;;4.04;79.42;98216.21;215905;1276;139914;-79
2022/02/17 22:51:14;;;;;;;3.80;1.60;;;;;;;4.06;79.35;98240.35;216112;1276;139505;-79
2022/02/17 22:56:17;;;;;;;9.30;2.70;;;;;;;4.07;79.21;98237.73;215831;1276;139752;-78
2022/02/17 23:01:19;;;;;;;4.60;1.60;;;;;;;4.10;78.95;98252.98;216111;1276;140232;-78
2022/02/17 23:06:21;;;;;;;2.60;1.20;;;;;;;4.12;78.88;98261.59;215624;1275;140513;-79
2022/02/17 23:11:27;;;;;;;5.90;1.50;;;;;;;4.17;78.66;98266.14;215991;1276;139495;-73
2022/02/17 23:21:50;;;;;;;5.90;2.40;;;;;;;4.20;78.31;98279.61;215707;1276;140977;-78
2022/02/17 23:26:52;;;;;;;7.50;1.60;;;;;;;4.21;78.26;98276.42;215937;1276;140501;-79
2022/02/17 23:31:54;;;;;;;6.00;2.70;;;;;;;4.22;78.08;98282.66;215703;1276;140370;-78
2022/02/17 23:36:56;;;;;;;8.80;2.60;;;;;;;4.22;78.09;98288.67;216036;1276;140387;-77
2022/02/17 23:41:58;;;;;;;8.40;2.10;;;;;;;4.23;78.00;98298.55;215683;1276;140209;-77
2022/02/17 23:47:00;;;;;;;6.60;3.20;;;;;;;4.22;77.79;98297.92;215707;1276;139922;-74
2022/02/17 23:52:04;;;;;;;5.40;1.70;;;;;;;4.26;77.63;98309.18;215934;1276;139763;-78
2022/02/17 23:57:06;;;;;;;6.00;2.70;;;;;;;4.28;77.57;98309.07;215958;1276;139518;-78
